createdAt,value
2023-04-13T00:00:48.320Z,93.17
2023-04-13T00:03:18.920Z,93.69
2023-04-13T00:05:46.160Z,94.12
2023-04-13T00:08:13.418Z,93.68
2023-04-13T00:10:42.469Z,93.91
2023-04-13T00:13:10.049Z,93.86
2023-04-13T00:15:40.393Z,93.64
2023-04-13T00:18:08.129Z,93.70
2023-04-13T00:20:34.321Z,93.96
2023-04-13T00:23:00.668Z,94.13
2023-04-13T00:25:27.056Z,94.13
2023-04-13T00:27:53.402Z,93.95
2023-04-13T00:30:20.595Z,94.65
2023-04-13T00:32:47.998Z,94.74
2023-04-13T00:35:23.961Z,94.94
2023-04-13T00:37:52.142Z,94.56
2023-04-13T00:40:18.581Z,95.05
2023-04-13T00:42:47.090Z,94.93
2023-04-13T00:45:13.768Z,95.06
2023-04-13T00:47:42.418Z,94.90
2023-04-13T00:50:09.009Z,95.40
2023-04-13T00:52:37.530Z,95.34
2023-04-13T00:55:03.993Z,95.53
2023-04-13T00:57:32.126Z,95.50
2023-04-13T00:59:59.472Z,94.56
2023-04-13T01:02:26.147Z,94.72
2023-04-13T01:04:55.175Z,94.14
2023-04-13T01:07:58.670Z,94.56
2023-04-13T01:11:03.273Z,95.27
2023-04-13T01:14:11.601Z,94.55
2023-04-13T01:16:48.317Z,95.03
2023-04-13T01:19:27.486Z,94.28
2023-04-13T01:21:54.256Z,94.96
2023-04-13T01:24:37.031Z,94.52
2023-04-13T01:27:12.332Z,94.61
2023-04-13T01:29:39.556Z,94.48
2023-04-13T01:32:08.151Z,94.14
2023-04-13T01:34:35.888Z,93.73
2023-04-13T01:37:06.975Z,94.05
2023-04-13T01:39:36.225Z,93.58
2023-04-13T01:42:21.979Z,92.78
2023-04-13T01:44:50.556Z,92.43
2023-04-13T01:47:20.916Z,92.07
2023-04-13T01:50:29.107Z,92.36
2023-04-13T01:53:10.454Z,91.95
2023-04-13T01:55:42.111Z,91.80
2023-04-13T01:58:12.400Z,91.60
2023-04-13T02:00:40.709Z,90.89
2023-04-13T02:03:11.509Z,91.00
2023-04-13T02:05:39.409Z,91.28
2023-04-13T02:08:07.779Z,90.62
2023-04-13T02:10:39.403Z,90.33
2023-04-13T02:13:06.569Z,90.70
2023-04-13T02:15:35.214Z,90.49
2023-04-13T02:18:01.761Z,90.81
2023-04-13T02:20:30.026Z,90.72
2023-04-13T02:23:00.017Z,90.51
2023-04-13T02:25:27.456Z,90.46
2023-04-13T02:27:54.041Z,90.40
2023-04-13T02:30:20.610Z,89.96
2023-04-13T02:32:48.740Z,90.37
2023-04-13T02:35:15.803Z,89.87
2023-04-13T02:37:42.414Z,90.78
2023-04-13T02:40:12.960Z,90.61
2023-04-13T02:42:39.205Z,90.46
2023-04-13T02:45:08.085Z,90.70
2023-04-13T02:47:36.159Z,91.07
2023-04-13T02:50:03.856Z,90.64
2023-04-13T02:52:38.761Z,90.83
2023-04-13T02:55:07.342Z,90.73
2023-04-13T02:57:45.362Z,90.21
2023-04-13T03:00:13.008Z,90.60
2023-04-13T03:02:47.107Z,90.96
2023-04-13T03:05:16.241Z,92.06
2023-04-13T03:07:42.276Z,91.76
2023-04-13T03:10:10.263Z,91.81
2023-04-13T03:12:37.027Z,92.27
2023-04-13T03:15:10.426Z,92.03
2023-04-13T03:17:40.897Z,92.09
2023-04-13T03:20:15.843Z,92.54
2023-04-13T03:22:52.915Z,92.56
2023-04-13T03:25:20.855Z,92.35
2023-04-13T03:27:47.256Z,92.80
2023-04-13T03:30:17.910Z,93.11
2023-04-13T03:32:51.699Z,93.04
2023-04-13T03:35:20.847Z,93.10
2023-04-13T03:37:47.282Z,93.40
2023-04-13T03:40:25.087Z,92.98
2023-04-13T03:42:52.564Z,92.95
2023-04-13T03:45:21.969Z,92.32
2023-04-13T03:47:49.062Z,92.38
2023-04-13T03:50:16.320Z,92.74
2023-04-13T03:52:42.486Z,92.48
2023-04-13T03:55:08.999Z,92.33
2023-04-13T03:57:36.719Z,92.49
2023-04-13T04:00:10.502Z,91.63
2023-04-13T04:03:12.016Z,92.07
2023-04-13T04:05:50.974Z,91.95
2023-04-13T04:08:17.326Z,91.97
2023-04-13T04:10:43.803Z,93.86
2023-04-13T04:13:10.937Z,92.63
2023-04-13T04:15:42.617Z,93.47
2023-04-13T04:18:09.627Z,93.40
2023-04-13T04:20:38.646Z,92.89
2023-04-13T04:23:05.250Z,92.92
2023-04-13T04:25:41.198Z,93.46
2023-04-13T04:28:07.512Z,93.88
2023-04-13T04:30:34.379Z,93.98
2023-04-13T04:33:02.540Z,94.21
2023-04-13T04:35:34.117Z,94.41
2023-04-13T04:38:05.772Z,94.83
2023-04-13T04:40:35.276Z,95.29
2023-04-13T04:43:04.003Z,94.95
2023-04-13T04:45:37.612Z,94.97
2023-04-13T04:48:06.998Z,94.35
2023-04-13T04:50:33.503Z,93.05
2023-04-13T04:53:08.103Z,94.11
2023-04-13T04:55:34.702Z,94.26
2023-04-13T04:58:01.304Z,94.00
2023-04-13T05:00:30.253Z,92.78
2023-04-13T05:03:02.125Z,93.23
2023-04-13T05:05:31.546Z,92.63
2023-04-13T05:08:02.701Z,92.00
2023-04-13T05:10:30.017Z,91.63
2023-04-13T05:12:57.457Z,91.80
2023-04-13T05:15:26.008Z,91.59
2023-04-13T05:17:53.335Z,91.77
2023-04-13T05:20:19.909Z,91.76
2023-04-13T05:23:05.037Z,91.31
2023-04-13T05:25:38.792Z,91.66
2023-04-13T05:28:10.012Z,91.88
2023-04-13T05:30:36.684Z,92.20
2023-04-13T05:33:06.009Z,91.50
2023-04-13T05:35:33.743Z,92.77
2023-04-13T05:38:00.548Z,92.55
2023-04-13T05:40:29.813Z,92.35
2023-04-13T05:42:57.566Z,91.84
2023-04-13T05:45:28.124Z,91.47
2023-04-13T05:48:03.972Z,91.86
2023-04-13T05:50:30.539Z,91.84
2023-04-13T05:52:56.815Z,92.07
2023-04-13T05:55:24.170Z,92.12
2023-04-13T05:57:57.581Z,92.67
2023-04-13T06:00:25.232Z,92.76
2023-04-13T06:03:01.851Z,92.59
2023-04-13T06:05:31.085Z,92.08
2023-04-13T06:07:58.948Z,91.52
2023-04-13T06:10:25.866Z,92.67
2023-04-13T06:12:52.535Z,91.83
2023-04-13T06:15:20.011Z,91.74
2023-04-13T06:17:50.764Z,91.89
2023-04-13T06:20:17.178Z,91.33
2023-04-13T06:22:43.367Z,90.94
2023-04-13T06:25:11.417Z,90.88
2023-04-13T06:27:42.764Z,89.72
2023-04-13T06:30:09.928Z,89.51
2023-04-13T06:32:36.294Z,89.89
2023-04-13T06:35:05.231Z,89.99
2023-04-13T06:37:38.760Z,90.05
2023-04-13T06:40:14.865Z,89.20
2023-04-13T06:42:48.238Z,89.32
2023-04-13T06:45:47.640Z,88.98
2023-04-13T06:48:20.275Z,88.96
2023-04-13T06:50:51.517Z,89.13
2023-04-13T06:53:17.914Z,88.61
2023-04-13T06:55:44.468Z,88.06
2023-04-13T06:58:10.711Z,87.51
2023-04-13T07:00:37.197Z,88.20
2023-04-13T07:03:03.913Z,86.64
2023-04-13T07:05:31.293Z,86.88
2023-04-13T07:08:05.694Z,86.66
2023-04-13T07:10:37.290Z,86.66
2023-04-13T07:13:03.584Z,87.53
2023-04-13T07:15:32.304Z,87.84
2023-04-13T07:17:59.211Z,87.45
2023-04-13T07:20:26.614Z,87.20
2023-04-13T07:22:52.997Z,86.68
2023-04-13T07:25:20.904Z,85.41
2023-04-13T07:27:48.390Z,85.04
2023-04-13T07:30:15.663Z,84.91
2023-04-13T07:32:45.244Z,84.59
2023-04-13T07:35:12.204Z,82.39
2023-04-13T07:37:41.650Z,81.51
2023-04-13T07:40:10.920Z,79.09
2023-04-13T07:42:39.213Z,76.15
2023-04-13T07:45:06.762Z,77.26
2023-04-13T07:47:33.222Z,76.53
2023-04-13T07:50:05.823Z,77.25
2023-04-13T07:52:32.497Z,76.84
2023-04-13T07:55:01.695Z,76.00
2023-04-13T07:57:31.275Z,78.22
2023-04-13T08:00:03.305Z,78.28
2023-04-13T08:02:41.057Z,78.96
2023-04-13T08:05:11.713Z,78.30
2023-04-13T08:07:39.456Z,79.36
2023-04-13T08:10:07.910Z,80.35
2023-04-13T08:12:34.257Z,81.76
2023-04-13T08:15:00.849Z,80.27
2023-04-13T08:17:27.390Z,81.66
2023-04-13T08:19:53.843Z,82.33
2023-04-13T08:22:20.190Z,81.52
2023-04-13T08:24:46.862Z,81.79
2023-04-13T08:27:13.095Z,82.50
2023-04-13T08:29:40.140Z,81.63
2023-04-13T08:32:06.705Z,81.80
2023-04-13T08:34:34.331Z,81.40
2023-04-13T08:37:00.510Z,81.39
2023-04-13T08:39:31.160Z,82.96
2023-04-13T08:41:57.852Z,80.59
2023-04-13T08:44:28.907Z,82.92
2023-04-13T08:46:55.909Z,82.29
2023-04-13T08:49:28.798Z,84.42
2023-04-13T08:52:09.548Z,83.16
2023-04-13T08:54:37.225Z,85.79
2023-04-13T08:57:06.836Z,85.01
2023-04-13T08:59:36.689Z,85.29
2023-04-13T09:02:06.014Z,85.56
2023-04-13T09:04:41.640Z,84.73
2023-04-13T09:07:15.352Z,86.09
2023-04-13T09:09:45.010Z,86.78
2023-04-13T09:12:14.085Z,85.91
2023-04-13T09:14:40.734Z,87.32
2023-04-13T09:17:07.498Z,87.17
2023-04-13T09:19:37.860Z,87.56
2023-04-13T09:22:13.479Z,87.46
2023-04-13T09:24:40.960Z,88.57
2023-04-13T09:27:19.690Z,87.63
2023-04-13T09:29:54.731Z,88.31
2023-04-13T09:32:23.020Z,88.33
2023-04-13T09:35:04.608Z,86.67
2023-04-13T09:37:32.001Z,87.60
2023-04-13T09:40:07.918Z,86.91
2023-04-13T09:42:34.449Z,85.79
2023-04-13T09:45:01.677Z,86.49
2023-04-13T09:47:39.572Z,86.57
2023-04-13T09:50:35.835Z,84.55
2023-04-13T09:53:03.785Z,82.08
2023-04-13T09:55:36.311Z,81.81
2023-04-13T09:58:14.242Z,83.82
2023-04-13T10:00:42.638Z,81.20
2023-04-13T10:03:11.092Z,81.68
2023-04-13T10:05:51.073Z,82.84
2023-04-13T10:08:36.732Z,80.47
2023-04-13T10:11:07.675Z,80.61
2023-04-13T10:13:40.793Z,78.66
2023-04-13T10:16:25.541Z,79.44
2023-04-13T10:19:04.512Z,80.52
2023-04-13T10:21:34.802Z,78.25
2023-04-13T10:24:12.495Z,79.33
2023-04-13T10:26:41.182Z,77.82
2023-04-13T10:29:09.422Z,78.26
2023-04-13T10:31:38.904Z,78.67
2023-04-13T10:34:09.827Z,77.55
2023-04-13T10:36:37.826Z,79.94
2023-04-13T10:39:04.214Z,78.32
2023-04-13T10:41:30.833Z,79.07
2023-04-13T10:44:05.199Z,75.14
2023-04-13T10:46:35.378Z,75.17
2023-04-13T10:49:03.400Z,75.42
2023-04-13T10:51:40.329Z,74.79
2023-04-13T10:54:07.634Z,75.50
2023-04-13T10:56:34.386Z,74.89
2023-04-13T10:59:00.920Z,76.18
2023-04-13T11:01:29.940Z,78.07
2023-04-13T11:04:03.814Z,78.29
2023-04-13T11:06:37.097Z,79.07
2023-04-13T11:09:05.848Z,76.89
2023-04-13T11:11:33.621Z,76.76
2023-04-13T11:14:00.179Z,74.67
2023-04-13T11:16:26.951Z,74.74
2023-04-13T11:19:03.397Z,76.48
2023-04-13T11:21:31.157Z,75.44
2023-04-13T11:24:01.323Z,75.94
2023-04-13T11:26:36.883Z,76.63
2023-04-13T11:29:03.984Z,75.93
2023-04-13T11:31:41.257Z,76.57
2023-04-13T11:34:12.329Z,77.45
2023-04-13T11:36:40.264Z,74.58
2023-04-13T11:39:10.255Z,73.88
2023-04-13T11:41:41.479Z,75.44
2023-04-13T11:44:10.650Z,75.26
2023-04-13T11:46:37.424Z,74.09
2023-04-13T11:49:03.952Z,74.93
2023-04-13T11:51:31.860Z,75.56
2023-04-13T11:53:58.984Z,75.42
2023-04-13T11:56:25.547Z,76.37
2023-04-13T11:58:52.637Z,76.58
2023-04-13T12:01:26.116Z,78.22
2023-04-13T12:04:13.961Z,77.55
2023-04-13T12:06:45.014Z,76.91
2023-04-13T12:09:15.684Z,77.27
2023-04-13T12:11:50.092Z,77.35
2023-04-13T12:19:24.018Z,78.35
2023-04-13T12:22:00.207Z,77.66
2023-04-13T12:24:34.184Z,76.51
2023-04-13T12:27:17.757Z,77.33
2023-04-13T12:29:45.197Z,76.60
2023-04-13T12:32:16.268Z,75.91
2023-04-13T12:34:43.255Z,76.66
2023-04-13T12:37:10.928Z,75.57
2023-04-13T12:39:37.229Z,75.21
2023-04-13T12:42:04.495Z,76.42
2023-04-13T12:44:33.241Z,76.15
2023-04-13T12:47:01.695Z,76.13
2023-04-13T12:49:28.212Z,74.85
2023-04-13T12:51:55.163Z,75.36
2023-04-13T12:54:21.336Z,75.38
2023-04-13T12:56:48.275Z,75.54
2023-04-13T12:59:14.694Z,76.27
2023-04-13T13:01:41.213Z,75.34
2023-04-13T13:04:07.547Z,75.59
2023-04-13T13:06:34.591Z,76.64
2023-04-13T13:09:01.097Z,77.25
2023-04-13T13:11:27.896Z,77.31
2023-04-13T13:13:54.522Z,78.34
2023-04-13T13:16:21.166Z,78.76
2023-04-13T13:18:50.908Z,76.79
2023-04-13T13:21:19.460Z,76.49
2023-04-13T13:23:46.044Z,76.57
2023-04-13T13:26:33.158Z,76.03
2023-04-13T13:28:59.810Z,76.47
2023-04-13T13:31:26.879Z,76.79
2023-04-13T13:33:53.640Z,78.82
2023-04-13T13:36:20.035Z,78.59
2023-04-13T13:38:47.011Z,78.54
2023-04-13T13:41:13.817Z,79.07
2023-04-13T13:43:40.181Z,79.47
2023-04-13T13:46:06.997Z,81.44
2023-04-13T13:48:36.328Z,81.10
2023-04-13T13:51:31.017Z,83.31
2023-04-13T13:53:58.739Z,82.55
2023-04-13T13:56:25.435Z,83.13
2023-04-13T13:58:51.594Z,81.53
2023-04-13T14:01:20.928Z,81.25
2023-04-13T14:03:47.921Z,80.94
2023-04-13T14:06:14.972Z,80.78
2023-04-13T14:08:41.407Z,79.97
2023-04-13T14:11:10.573Z,77.78
2023-04-13T14:13:36.675Z,77.03
2023-04-13T14:16:03.852Z,77.43
2023-04-13T14:18:30.125Z,77.01
2023-04-13T14:21:01.299Z,75.71
2023-04-13T14:23:28.198Z,76.46
2023-04-13T14:25:55.094Z,71.62
2023-04-13T14:28:21.429Z,71.87
2023-04-13T14:30:48.185Z,70.71
2023-04-13T14:33:15.491Z,69.79
2023-04-13T14:35:43.001Z,69.34
2023-04-13T14:38:10.849Z,67.15
2023-04-13T14:40:37.674Z,67.60
2023-04-13T14:43:05.364Z,68.01
2023-04-13T14:45:32.471Z,71.30
2023-04-13T14:47:58.956Z,68.86
2023-04-13T14:50:25.734Z,68.54
2023-04-13T14:52:52.018Z,70.20
2023-04-13T14:55:18.799Z,71.72
2023-04-13T14:57:45.290Z,71.15
2023-04-13T15:00:21.017Z,71.67
2023-04-13T15:02:49.288Z,71.76
2023-04-13T15:05:16.604Z,71.89
2023-04-13T15:07:44.596Z,73.30
2023-04-13T15:10:11.870Z,74.20
2023-04-13T15:12:39.662Z,75.23
2023-04-13T15:15:06.942Z,74.71
2023-04-13T15:17:33.500Z,75.48
2023-04-13T15:20:00.271Z,75.31
2023-04-13T15:22:26.562Z,76.63
2023-04-13T15:24:53.179Z,76.66
2023-04-13T15:27:19.655Z,77.21
2023-04-13T15:29:46.164Z,77.79
2023-04-13T15:32:13.583Z,76.19
2023-04-13T15:34:40.175Z,77.38
2023-04-13T15:37:06.507Z,78.31
2023-04-13T15:39:33.087Z,79.32
2023-04-13T15:41:59.827Z,80.36
2023-04-13T15:44:26.358Z,79.74
2023-04-13T15:46:52.765Z,81.35
2023-04-13T15:49:19.366Z,79.74
2023-04-13T15:51:45.671Z,78.78
2023-04-13T15:54:12.219Z,78.74
2023-04-13T15:56:38.430Z,76.24
2023-04-13T15:59:04.801Z,76.70
2023-04-13T16:01:51.406Z,75.06
2023-04-13T16:04:18.351Z,76.16
2023-04-13T16:06:45.289Z,76.63
2023-04-13T16:09:11.912Z,77.97
2023-04-13T16:11:38.119Z,78.11
2023-04-13T16:14:08.529Z,77.81
2023-04-13T16:16:45.871Z,78.43
2023-04-13T16:19:13.358Z,80.24
2023-04-13T16:21:42.637Z,80.64
2023-04-13T16:24:09.951Z,81.93
2023-04-13T16:26:37.132Z,82.08
2023-04-13T16:29:04.589Z,83.44
2023-04-13T16:31:30.919Z,84.36
2023-04-13T16:33:57.466Z,85.79
2023-04-13T16:36:24.320Z,87.02
2023-04-13T16:38:52.419Z,86.86
2023-04-13T16:41:19.008Z,87.28
2023-04-13T16:43:45.409Z,88.51
2023-04-13T16:46:13.201Z,88.42
2023-04-13T16:48:39.537Z,89.74
2023-04-13T16:51:05.981Z,89.32
2023-04-13T16:53:32.172Z,91.01
2023-04-13T16:55:58.642Z,92.33
2023-04-13T16:58:25.189Z,91.69
2023-04-13T17:00:52.212Z,92.61
2023-04-13T17:03:18.570Z,93.61
2023-04-13T17:05:45.762Z,91.94
2023-04-13T17:08:12.294Z,92.70
2023-04-13T17:10:38.831Z,92.05
2023-04-13T17:13:05.064Z,94.33
2023-04-13T17:15:31.929Z,95.04
2023-04-13T17:17:58.172Z,96.04
2023-04-13T17:20:25.306Z,96.58
2023-04-13T17:22:51.648Z,96.07
2023-04-13T17:25:18.724Z,96.79
2023-04-13T17:27:45.171Z,95.44
2023-04-13T17:30:12.830Z,95.15
2023-04-13T17:32:39.372Z,94.35
2023-04-13T17:35:06.097Z,93.40
2023-04-13T17:37:32.266Z,95.78
2023-04-13T17:39:59.275Z,94.51
2023-04-13T17:42:26.775Z,94.85
2023-04-13T17:44:53.792Z,95.20
2023-04-13T17:47:21.786Z,96.25
2023-04-13T17:49:48.817Z,98.03
2023-04-13T17:52:15.591Z,99.09
2023-04-13T17:54:42.144Z,100.00
2023-04-13T17:57:08.426Z,100.00
2023-04-13T17:59:35.215Z,100.00
2023-04-13T18:02:01.584Z,100.00
2023-04-13T18:04:31.054Z,100.00
2023-04-13T18:06:58.969Z,100.00
2023-04-13T18:09:27.366Z,100.00
2023-04-13T18:11:53.628Z,100.00
2023-04-13T18:14:20.610Z,100.00
2023-04-13T18:16:46.909Z,100.00
2023-04-13T18:19:13.887Z,100.00
2023-04-13T18:21:40.057Z,100.00
2023-04-13T18:24:06.977Z,100.00
2023-04-13T18:26:33.290Z,100.00
2023-04-13T18:28:59.947Z,100.00
2023-04-13T18:31:26.674Z,100.00
2023-04-13T18:33:54.596Z,100.00
2023-04-13T18:36:21.125Z,100.00
2023-04-13T18:38:47.927Z,100.00
2023-04-13T18:41:14.618Z,100.00
2023-04-13T18:43:41.722Z,100.00
2023-04-13T18:46:08.240Z,100.00
2023-04-13T18:48:35.282Z,100.00
2023-04-13T18:51:02.538Z,100.00
2023-04-13T18:53:29.203Z,100.00
2023-04-13T18:55:57.446Z,100.00
2023-04-13T18:58:24.388Z,100.00
2023-04-13T19:00:51.100Z,100.00
2023-04-13T19:03:18.084Z,100.00
2023-04-13T19:05:45.467Z,100.00
2023-04-13T19:08:12.806Z,100.00
2023-04-13T19:10:42.120Z,100.00
2023-04-13T19:13:09.476Z,100.00
2023-04-13T19:15:36.187Z,100.00
2023-04-13T19:18:03.812Z,100.00
2023-04-13T19:20:30.405Z,100.00
2023-04-13T19:22:57.656Z,100.00
2023-04-13T19:25:24.052Z,100.00
2023-04-13T19:27:51.137Z,100.00
2023-04-13T19:30:18.692Z,100.00
2023-04-13T19:32:46.921Z,100.00
2023-04-13T19:35:14.476Z,100.00
2023-04-13T19:37:41.620Z,100.00
2023-04-13T19:40:14.445Z,100.00
2023-04-13T19:42:42.694Z,100.00
2023-04-13T19:45:10.385Z,100.00
2023-04-13T19:47:38.837Z,100.00
2023-04-13T19:50:07.743Z,100.00
2023-04-13T19:52:34.429Z,100.00
2023-04-13T19:55:00.894Z,100.00
2023-04-13T19:57:28.108Z,100.00
2023-04-13T19:59:54.780Z,100.00
2023-04-13T20:02:21.947Z,100.00
2023-04-13T20:04:49.462Z,100.00
2023-04-13T20:07:16.987Z,100.00
2023-04-13T20:09:44.403Z,100.00
2023-04-13T20:12:11.563Z,100.00
2023-04-13T20:14:41.104Z,100.00
2023-04-13T20:17:08.486Z,100.00
2023-04-13T20:19:35.716Z,100.00
2023-04-13T20:22:03.992Z,100.00
2023-04-13T20:24:30.854Z,100.00
2023-04-13T20:26:58.084Z,100.00
2023-04-13T20:29:26.270Z,100.00
2023-04-13T20:31:53.378Z,100.00
2023-04-13T20:34:20.448Z,100.00
2023-04-13T20:36:48.622Z,100.00
2023-04-13T20:39:17.699Z,100.00
2023-04-13T20:41:54.686Z,100.00
2023-04-13T20:44:24.993Z,100.00
2023-04-13T20:46:54.932Z,100.00
2023-04-13T20:49:22.524Z,100.00
2023-04-13T20:51:53.079Z,100.00
2023-04-13T20:54:19.803Z,100.00
2023-04-13T20:56:48.476Z,100.00
2023-04-13T20:59:15.683Z,100.00
2023-04-13T21:01:42.462Z,100.00
2023-04-13T21:04:09.360Z,100.00
2023-04-13T21:06:36.381Z,100.00
2023-04-13T21:09:04.872Z,100.00
2023-04-13T21:11:31.387Z,100.00
2023-04-13T21:13:57.662Z,100.00
2023-04-13T21:16:25.109Z,100.00
2023-04-13T21:18:52.887Z,100.00
2023-04-13T21:21:23.465Z,100.00
2023-04-13T21:23:50.463Z,100.00
2023-04-13T21:26:16.868Z,100.00
2023-04-13T21:28:43.110Z,100.00
2023-04-13T21:31:09.463Z,100.00
2023-04-13T21:33:35.787Z,100.00
2023-04-13T21:38:40.830Z,100.00
2023-04-13T21:41:17.537Z,100.00
2023-04-13T21:43:43.974Z,100.00
2023-04-13T21:46:11.366Z,100.00
2023-04-13T21:48:38.628Z,100.00
2023-04-13T21:51:06.276Z,100.00
2023-04-13T21:53:34.753Z,100.00
2023-04-13T21:56:02.161Z,100.00
2023-04-13T21:58:43.186Z,100.00
2023-04-13T22:01:11.950Z,100.00
2023-04-13T22:03:44.514Z,100.00
2023-04-13T22:06:11.039Z,100.00
2023-04-13T22:08:38.095Z,100.00
2023-04-13T22:11:05.223Z,100.00
2023-04-13T22:13:32.001Z,100.00
2023-04-13T22:15:58.576Z,100.00
2023-04-13T22:18:26.117Z,100.00
2023-04-13T22:20:52.743Z,100.00
2023-04-13T22:23:18.904Z,100.00
2023-04-13T22:25:53.548Z,100.00
2023-04-13T22:28:19.750Z,100.00
2023-04-13T22:30:46.585Z,100.00
2023-04-13T22:33:13.333Z,100.00
2023-04-13T22:35:39.936Z,100.00
2023-04-13T22:38:06.066Z,100.00
2023-04-13T22:40:32.753Z,100.00
2023-04-13T22:42:59.013Z,100.00
2023-04-13T22:45:25.826Z,100.00
2023-04-13T22:47:53.034Z,100.00
2023-04-13T22:50:19.855Z,100.00
2023-04-13T22:52:45.927Z,100.00
2023-04-13T22:55:12.322Z,100.00
2023-04-13T22:57:38.955Z,100.00
2023-04-13T23:00:05.927Z,100.00
2023-04-13T23:02:32.353Z,100.00
2023-04-13T23:04:59.345Z,100.00
2023-04-13T23:07:25.636Z,100.00
2023-04-13T23:09:52.538Z,100.00
2023-04-13T23:12:18.640Z,100.00
2023-04-13T23:14:44.994Z,100.00
2023-04-13T23:17:11.368Z,100.00
2023-04-13T23:19:37.828Z,100.00
2023-04-13T23:22:04.847Z,100.00
2023-04-13T23:24:31.181Z,100.00
2023-04-13T23:26:57.295Z,100.00
2023-04-13T23:29:23.773Z,100.00
2023-04-13T23:31:50.051Z,100.00
2023-04-13T23:34:16.633Z,100.00
2023-04-13T23:36:42.721Z,100.00
2023-04-13T23:39:09.095Z,100.00
2023-04-13T23:41:35.176Z,100.00
2023-04-13T23:44:01.542Z,100.00
2023-04-13T23:46:29.475Z,100.00
2023-04-13T23:48:55.826Z,100.00
2023-04-13T23:51:22.140Z,100.00
2023-04-13T23:53:48.492Z,100.00
2023-04-13T23:56:14.613Z,100.00
2023-04-13T23:58:41.036Z,100.00
